createdAt,value
2018-11-04T00:01:20.518Z,19.90
2018-11-04T00:03:25.149Z,29.73
2018-11-04T00:05:29.465Z,23.97
2018-11-04T00:07:33.651Z,22.43
2018-11-04T00:09:37.904Z,23.17
2018-11-04T00:11:42.310Z,23.00
2018-11-04T00:13:46.608Z,19.40
2018-11-04T00:15:50.998Z,22.63
2018-11-04T00:17:55.368Z,20.23
2018-11-04T00:19:59.686Z,21.93
2018-11-04T00:22:04.063Z,24.80
2018-11-04T00:24:08.515Z,21.10
2018-11-04T00:26:12.937Z,21.03
2018-11-04T00:28:17.430Z,18.40
2018-11-04T00:30:21.906Z,23.70
2018-11-04T00:32:26.285Z,19.67
2018-11-04T00:34:30.717Z,20.07
2018-11-04T00:36:35.081Z,23.83
2018-11-04T00:38:39.292Z,19.10
2018-11-04T00:40:43.771Z,20.87
2018-11-04T00:42:47.953Z,22.87
2018-11-04T00:44:52.378Z,19.97
2018-11-04T00:46:56.678Z,22.97
2018-11-04T00:49:00.906Z,18.93
2018-11-04T00:51:05.299Z,19.83
2018-11-04T00:53:09.596Z,20.93
2018-11-04T00:55:14.214Z,23.43
2018-11-04T00:57:18.573Z,22.47
2018-11-04T00:59:22.956Z,21.40
2018-11-04T01:01:27.376Z,20.47
2018-11-04T01:03:31.745Z,23.80
2018-11-04T01:05:36.121Z,22.40
2018-11-04T01:07:40.577Z,20.23
2018-11-04T01:09:45.096Z,24.47
2018-11-04T01:11:49.604Z,21.33
2018-11-04T01:13:54.109Z,19.47
2018-11-04T01:15:58.543Z,19.83
2018-11-04T01:18:03.088Z,22.90
2018-11-04T01:20:09.274Z,19.17
2018-11-04T01:22:13.585Z,17.50
2018-11-04T01:24:17.908Z,20.13
2018-11-04T01:26:22.138Z,19.20
2018-11-04T01:28:26.595Z,16.30
2018-11-04T01:30:31.019Z,19.37
2018-11-04T01:32:35.202Z,16.33
2018-11-04T01:34:39.529Z,20.83
2018-11-04T01:36:43.958Z,18.27
2018-11-04T01:38:48.371Z,19.50
2018-11-04T01:40:52.815Z,17.60
2018-11-04T01:42:57.184Z,16.80
2018-11-04T01:45:01.435Z,16.00
2018-11-04T01:47:06.037Z,14.70
2018-11-04T01:49:10.327Z,16.80
2018-11-04T01:51:14.975Z,17.83
2018-11-04T01:53:19.288Z,15.17
2018-11-04T01:55:23.882Z,17.77
2018-11-04T01:57:28.299Z,16.97
2018-11-04T01:59:32.928Z,17.30
2018-11-04T02:01:37.088Z,13.67
2018-11-04T02:03:41.325Z,14.20
2018-11-04T02:05:45.845Z,14.20
2018-11-04T02:07:50.311Z,15.60
2018-11-04T02:09:54.603Z,16.87
2018-11-04T02:11:59.083Z,15.37
2018-11-04T02:14:03.618Z,14.20
2018-11-04T02:16:07.968Z,13.70
2018-11-04T02:18:12.136Z,17.80
2018-11-04T02:20:16.518Z,15.87
2018-11-04T02:22:20.782Z,15.73
2018-11-04T02:24:25.214Z,15.40
2018-11-04T02:26:29.533Z,23.23
2018-11-04T02:28:33.935Z,13.90
2018-11-04T02:30:38.361Z,14.67
2018-11-04T02:32:43.623Z,16.43
2018-11-04T02:34:47.862Z,15.47
2018-11-04T02:36:52.135Z,13.23
2018-11-04T02:38:56.528Z,17.20
2018-11-04T02:41:00.819Z,12.10
2018-11-04T02:43:05.346Z,14.37
2018-11-04T02:45:09.840Z,15.50
2018-11-04T02:47:14.256Z,12.90
2018-11-04T02:49:18.809Z,16.03
2018-11-04T02:51:23.338Z,13.40
2018-11-04T02:53:27.848Z,13.03
2018-11-04T02:55:32.194Z,22.53
2018-11-04T02:57:36.573Z,16.87
2018-11-04T02:59:41.227Z,16.47
2018-11-04T03:01:45.620Z,12.77
2018-11-04T03:03:50.074Z,15.90
2018-11-04T03:05:54.262Z,14.57
2018-11-04T03:07:58.711Z,20.13
2018-11-04T03:10:03.006Z,15.50
2018-11-04T03:12:07.333Z,15.87
2018-11-04T03:14:11.754Z,18.00
2018-11-04T03:16:16.029Z,16.93
2018-11-04T03:18:20.453Z,18.37
2018-11-04T03:20:24.807Z,21.30
2018-11-04T03:22:29.158Z,17.63
2018-11-04T03:24:33.271Z,15.67
2018-11-04T03:26:37.631Z,16.40
2018-11-04T03:28:42.043Z,17.83
2018-11-04T03:30:46.232Z,18.73
2018-11-04T03:32:50.540Z,16.10
2018-11-04T03:34:54.903Z,14.13
2018-11-04T03:36:59.396Z,14.63
2018-11-04T03:39:05.338Z,17.07
2018-11-04T03:41:09.634Z,16.00
2018-11-04T03:43:13.976Z,16.97
2018-11-04T03:45:18.285Z,17.57
2018-11-04T03:47:22.600Z,17.80
2018-11-04T03:49:27.012Z,15.60
2018-11-04T03:51:31.450Z,18.33
2018-11-04T03:53:35.824Z,22.20
2018-11-04T03:55:40.080Z,16.23
2018-11-04T03:57:44.432Z,16.30
2018-11-04T03:59:48.680Z,15.40
2018-11-04T04:01:53.010Z,15.83
2018-11-04T04:03:57.537Z,17.73
2018-11-04T04:06:01.848Z,20.43
2018-11-04T04:08:06.266Z,19.13
2018-11-04T04:10:10.454Z,15.27
2018-11-04T04:12:14.775Z,15.83
2018-11-04T04:14:19.015Z,16.07
2018-11-04T04:16:23.432Z,16.40
2018-11-04T04:18:27.842Z,16.87
2018-11-04T04:20:32.073Z,15.43
2018-11-04T04:22:36.303Z,19.80
2018-11-04T04:24:40.675Z,14.50
2018-11-04T04:26:45.218Z,17.00
2018-11-04T04:28:49.739Z,17.83
2018-11-04T04:30:54.040Z,18.50
2018-11-04T04:32:58.343Z,16.43
2018-11-04T04:35:02.580Z,18.40
2018-11-04T04:37:07.219Z,20.20
2018-11-04T04:39:12.077Z,16.33
2018-11-04T04:41:16.418Z,17.77
2018-11-04T04:43:20.850Z,16.73
2018-11-04T04:45:25.076Z,21.93
2018-11-04T04:47:29.393Z,22.83
2018-11-04T04:49:33.685Z,18.10
2018-11-04T04:51:38.080Z,18.10
2018-11-04T04:53:42.545Z,18.40
2018-11-04T04:55:46.913Z,19.27
2018-11-04T04:57:51.264Z,21.60
2018-11-04T04:59:55.495Z,19.03
2018-11-04T05:02:00.002Z,14.90
2018-11-04T05:04:04.333Z,16.70
2018-11-04T05:06:08.618Z,21.13
2018-11-04T05:08:12.928Z,17.87
2018-11-04T05:10:17.216Z,16.33
2018-11-04T05:12:21.357Z,16.30
2018-11-04T05:14:25.643Z,16.00
2018-11-04T05:16:30.050Z,15.93
2018-11-04T05:18:34.614Z,17.33
2018-11-04T05:20:38.991Z,18.93
2018-11-04T05:22:43.332Z,18.87
2018-11-04T05:24:47.963Z,15.00
2018-11-04T05:26:52.346Z,17.77
2018-11-04T05:28:57.074Z,19.50
2018-11-04T05:31:01.372Z,20.13
2018-11-04T05:33:05.814Z,19.57
2018-11-04T05:35:10.052Z,25.30
2018-11-04T05:37:14.561Z,22.97
2018-11-04T05:39:18.882Z,32.13
2018-11-04T05:41:23.387Z,27.77
2018-11-04T05:43:27.818Z,26.00
2018-11-04T05:45:32.117Z,30.50
2018-11-04T05:47:36.323Z,30.60
2018-11-04T05:49:40.857Z,29.00
2018-11-04T05:51:45.414Z,30.33
2018-11-04T05:53:49.786Z,38.17
2018-11-04T05:55:53.970Z,32.13
2018-11-04T05:57:58.329Z,43.33
2018-11-04T06:00:02.692Z,38.47
2018-11-04T06:02:07.231Z,36.30
2018-11-04T06:04:11.571Z,34.70
2018-11-04T06:06:15.990Z,34.30
2018-11-04T06:08:20.387Z,35.93
2018-11-04T06:10:24.830Z,38.47
2018-11-04T06:12:29.311Z,35.80
2018-11-04T06:14:33.682Z,47.40
2018-11-04T06:16:37.888Z,46.83
2018-11-04T06:18:42.387Z,41.10
2018-11-04T06:20:50.274Z,47.43
2018-11-04T06:22:54.603Z,48.17
2018-11-04T06:24:59.222Z,46.00
2018-11-04T06:27:03.647Z,42.87
2018-11-04T06:29:08.260Z,44.00
2018-11-04T06:31:12.684Z,52.67
2018-11-04T06:33:17.194Z,59.80
2018-11-04T06:35:21.524Z,46.13
2018-11-04T06:37:25.762Z,54.73
2018-11-04T06:39:30.030Z,54.77
2018-11-04T06:41:34.151Z,56.30
2018-11-04T06:43:38.465Z,47.87
2018-11-04T06:45:42.666Z,47.67
2018-11-04T06:47:47.347Z,54.83
2018-11-04T06:49:51.809Z,48.90
2018-11-04T06:51:56.468Z,63.30
2018-11-04T06:54:01.173Z,56.93
2018-11-04T06:56:06.068Z,44.40
2018-11-04T06:58:10.772Z,55.13
2018-11-04T07:00:16.314Z,57.30
2018-11-04T07:02:21.244Z,49.10
2018-11-04T07:04:27.848Z,51.23
2018-11-04T07:06:32.347Z,49.67
2018-11-04T07:08:37.780Z,51.57
2018-11-04T07:10:42.088Z,55.10
2018-11-04T07:12:46.597Z,66.30
2018-11-04T07:14:51.107Z,45.30
2018-11-04T07:16:55.461Z,53.10
2018-11-04T07:18:59.605Z,58.47
2018-11-04T07:21:03.956Z,61.60
2018-11-04T07:23:08.591Z,59.23
2018-11-04T07:25:13.185Z,65.07
2018-11-04T07:27:17.459Z,59.10
2018-11-04T07:29:22.065Z,53.33
2018-11-04T07:31:26.479Z,58.50
2018-11-04T07:33:30.853Z,57.27
2018-11-04T07:35:35.349Z,65.73
2018-11-04T07:37:40.531Z,56.70
2018-11-04T07:39:44.813Z,54.37
2018-11-04T07:41:49.730Z,53.83
2018-11-04T07:43:54.164Z,61.43
2018-11-04T07:45:58.383Z,54.07
2018-11-04T07:48:02.724Z,51.47
2018-11-04T07:50:10.228Z,54.13
2018-11-04T07:52:14.934Z,57.83
2018-11-04T07:54:19.215Z,49.73
2018-11-04T07:56:23.512Z,45.63
2018-11-04T07:58:28.056Z,59.17
2018-11-04T08:00:32.326Z,46.17
2018-11-04T08:02:36.697Z,48.27
2018-11-04T08:04:40.906Z,46.10
2018-11-04T08:06:45.171Z,45.80
2018-11-04T08:08:58.398Z,39.47
2018-11-04T08:11:18.692Z,50.07
2018-11-04T08:13:23.204Z,40.83
2018-11-04T08:15:27.599Z,42.23
2018-11-04T08:17:31.852Z,44.53
2018-11-04T08:19:36.185Z,38.10
2018-11-04T08:21:40.583Z,42.33
2018-11-04T08:23:45.059Z,39.73
2018-11-04T08:25:49.641Z,45.93
2018-11-04T08:27:54.149Z,46.87
2018-11-04T08:29:58.614Z,41.10
2018-11-04T08:32:03.010Z,35.83
2018-11-04T08:34:07.456Z,38.83
2018-11-04T08:36:12.035Z,34.63
2018-11-04T08:38:16.215Z,35.80
2018-11-04T08:40:20.941Z,35.63
2018-11-04T08:42:25.710Z,34.90
2018-11-04T08:44:29.964Z,33.43
2018-11-04T08:46:34.819Z,34.27
2018-11-04T08:48:39.244Z,37.80
2018-11-04T08:50:43.464Z,35.93
2018-11-04T08:52:50.215Z,39.53
2018-11-04T08:54:54.757Z,37.20
2018-11-04T08:56:59.181Z,34.20
2018-11-04T08:59:03.492Z,37.07
2018-11-04T09:01:08.117Z,39.80
2018-11-04T09:03:12.143Z,49.07
2018-11-04T09:05:16.536Z,44.43
2018-11-04T09:07:20.810Z,45.23
2018-11-04T09:09:25.264Z,40.43
2018-11-04T09:11:29.808Z,36.33
2018-11-04T09:13:34.227Z,40.90
2018-11-04T09:15:38.698Z,40.87
2018-11-04T09:17:43.141Z,35.03
2018-11-04T09:19:47.771Z,39.30
2018-11-04T09:21:52.455Z,38.80
2018-11-04T09:23:56.895Z,41.90
2018-11-04T09:26:01.737Z,41.40
2018-11-04T09:28:06.366Z,44.47
2018-11-04T09:30:13.134Z,40.93
2018-11-04T09:32:17.376Z,41.03
2018-11-04T09:34:23.067Z,43.30
2018-11-04T09:36:27.960Z,39.00
2018-11-04T09:38:32.228Z,35.90
2018-11-04T09:40:36.759Z,48.10
2018-11-04T09:42:41.071Z,42.00
2018-11-04T09:44:45.457Z,39.43
2018-11-04T09:46:50.197Z,42.03
2018-11-04T09:48:54.515Z,40.73
2018-11-04T09:50:58.791Z,33.67
2018-11-04T09:53:03.065Z,37.93
2018-11-04T09:55:08.629Z,38.80
2018-11-04T09:57:13.117Z,37.80
2018-11-04T09:59:17.588Z,43.87
2018-11-04T10:01:21.980Z,38.90
2018-11-04T10:03:26.497Z,37.30
2018-11-04T10:05:30.988Z,38.07
2018-11-04T10:07:35.735Z,41.70
2018-11-04T10:09:40.004Z,33.73
2018-11-04T10:11:44.427Z,43.73
2018-11-04T10:13:48.962Z,39.73
2018-11-04T10:15:53.469Z,38.73
2018-11-04T10:17:58.137Z,37.20
2018-11-04T10:20:02.529Z,41.63
2018-11-04T10:22:06.886Z,36.10
2018-11-04T10:24:11.465Z,37.03
2018-11-04T10:26:15.802Z,35.33
2018-11-04T10:28:20.289Z,39.47
2018-11-04T10:30:24.769Z,39.23
2018-11-04T10:32:29.523Z,44.67
2018-11-04T10:34:33.928Z,38.40
2018-11-04T10:36:38.259Z,36.60
2018-11-04T10:38:42.691Z,33.90
2018-11-04T10:40:47.029Z,38.30
2018-11-04T10:42:51.512Z,34.17
2018-11-04T10:44:55.825Z,37.73
2018-11-04T10:47:00.088Z,38.83
2018-11-04T10:49:04.522Z,34.67
2018-11-04T10:51:08.997Z,35.27
2018-11-04T10:53:13.614Z,38.20
2018-11-04T10:55:18.016Z,34.80
2018-11-04T10:57:22.394Z,43.20
2018-11-04T10:59:27.172Z,33.63
2018-11-04T11:01:31.572Z,36.33
2018-11-04T11:03:35.988Z,34.23
2018-11-04T11:05:40.223Z,33.77
2018-11-04T11:07:44.577Z,40.23
2018-11-04T11:09:48.629Z,34.00
2018-11-04T11:11:53.107Z,35.23
2018-11-04T11:13:57.435Z,31.50
2018-11-04T11:16:01.860Z,33.53
2018-11-04T11:18:06.359Z,38.83
2018-11-04T11:20:12.060Z,34.03
2018-11-04T11:22:16.566Z,34.63
2018-11-04T11:24:20.959Z,37.83
2018-11-04T11:26:25.429Z,36.73
2018-11-04T11:28:30.125Z,34.03
2018-11-04T11:30:34.575Z,36.37
2018-11-04T11:32:38.893Z,37.80
2018-11-04T11:34:43.204Z,37.07
2018-11-04T11:36:47.542Z,35.63
2018-11-04T11:38:51.966Z,32.30
2018-11-04T11:40:56.735Z,30.43
2018-11-04T11:43:01.269Z,40.23
2018-11-04T11:45:06.354Z,37.90
2018-11-04T11:47:11.242Z,35.70
2018-11-04T11:49:15.639Z,39.27
2018-11-04T11:51:20.239Z,35.90
2018-11-04T11:53:24.588Z,32.70
2018-11-04T11:55:29.443Z,35.73
2018-11-04T11:57:34.234Z,37.10
2018-11-04T11:59:38.959Z,35.90
2018-11-04T12:01:43.351Z,35.07
2018-11-04T12:03:47.784Z,36.53
2018-11-04T12:05:52.211Z,38.70
2018-11-04T12:07:56.981Z,38.07
2018-11-04T12:10:02.569Z,37.03
2018-11-04T12:12:07.229Z,34.80
2018-11-04T12:14:11.822Z,34.13
2018-11-04T12:16:15.851Z,37.67
2018-11-04T12:18:20.305Z,43.23
2018-11-04T12:20:24.535Z,35.33
2018-11-04T12:22:28.871Z,39.57
2018-11-04T12:24:33.177Z,37.03
2018-11-04T12:26:37.577Z,32.33
2018-11-04T12:28:41.884Z,37.60
2018-11-04T12:30:46.252Z,36.07
2018-11-04T12:32:50.606Z,40.27
2018-11-04T12:34:54.750Z,37.90
2018-11-04T12:36:59.000Z,36.33
2018-11-04T12:39:03.911Z,34.67
2018-11-04T12:41:08.482Z,37.90
2018-11-04T12:43:13.280Z,34.13
2018-11-04T12:45:18.417Z,38.87
2018-11-04T12:47:23.016Z,35.27
2018-11-04T12:49:27.621Z,35.40
2018-11-04T12:51:31.933Z,34.97
2018-11-04T12:53:36.569Z,36.27
2018-11-04T12:55:40.840Z,32.30
2018-11-04T12:57:45.349Z,36.80
2018-11-04T12:59:49.801Z,35.20
2018-11-04T13:01:54.234Z,34.37
2018-11-04T13:03:58.852Z,32.80
2018-11-04T13:06:03.264Z,36.80
2018-11-04T13:08:08.061Z,32.80
2018-11-04T13:10:13.672Z,38.47
2018-11-04T13:12:18.159Z,34.50
2018-11-04T13:14:22.790Z,36.20
2018-11-04T13:16:27.230Z,46.33
2018-11-04T13:18:32.849Z,35.73
2018-11-04T13:23:05.049Z,40.90
2018-11-04T13:25:09.893Z,39.50
2018-11-04T13:27:14.274Z,33.23
2018-11-04T13:29:18.722Z,40.13
2018-11-04T13:31:23.187Z,35.57
2018-11-04T13:33:28.279Z,33.33
2018-11-04T13:35:33.032Z,35.27
2018-11-04T13:37:37.649Z,32.63
2018-11-04T13:39:43.894Z,34.43
2018-11-04T13:41:48.156Z,36.43
2018-11-04T13:43:52.541Z,33.73
2018-11-04T13:45:56.698Z,34.83
2018-11-04T13:48:01.116Z,32.40
2018-11-04T13:50:06.623Z,35.17
2018-11-04T13:52:11.138Z,36.80
2018-11-04T13:54:15.781Z,33.17
2018-11-04T13:56:21.761Z,34.03
2018-11-04T13:58:26.257Z,38.33
2018-11-04T14:00:31.122Z,34.70
2018-11-04T14:02:35.609Z,37.20
2018-11-04T14:04:40.195Z,44.00
2018-11-04T14:06:44.574Z,37.20
2018-11-04T14:08:49.112Z,34.50
2018-11-04T14:10:53.394Z,34.93
2018-11-04T14:12:58.171Z,33.53
2018-11-04T14:15:02.526Z,37.90
2018-11-04T14:17:07.091Z,37.27
2018-11-04T14:19:11.836Z,31.93
2018-11-04T14:21:16.607Z,33.50
2018-11-04T14:23:21.152Z,42.93
2018-11-04T14:25:25.942Z,34.73
2018-11-04T14:27:30.524Z,34.47
2018-11-04T14:29:35.087Z,34.97
2018-11-04T14:31:39.586Z,35.17
2018-11-04T14:33:44.007Z,34.10
2018-11-04T14:35:48.366Z,35.87
2018-11-04T14:37:52.872Z,32.80
2018-11-04T14:39:57.163Z,37.37
2018-11-04T14:42:01.592Z,33.83
2018-11-04T14:44:06.114Z,36.60
2018-11-04T14:46:12.024Z,34.53
2018-11-04T14:48:18.565Z,35.30
2018-11-04T14:50:23.232Z,40.27
2018-11-04T14:52:27.882Z,38.27
2018-11-04T14:54:32.385Z,33.47
2018-11-04T14:56:36.506Z,36.83
2018-11-04T14:58:40.853Z,39.03
2018-11-04T15:00:45.538Z,34.90
2018-11-04T15:02:50.068Z,34.37
2018-11-04T15:04:55.261Z,35.40
2018-11-04T15:07:11.960Z,36.30
2018-11-04T15:09:17.547Z,39.33
2018-11-04T15:11:22.150Z,40.20
2018-11-04T15:13:27.819Z,32.77
2018-11-04T15:15:32.437Z,36.10
2018-11-04T15:17:36.958Z,41.17
2018-11-04T15:19:41.560Z,36.90
2018-11-04T15:21:46.519Z,34.97
2018-11-04T15:23:51.132Z,37.57
2018-11-04T15:25:55.633Z,40.03
2018-11-04T15:28:00.242Z,33.67
2018-11-04T15:30:05.312Z,40.77
2018-11-04T15:32:11.821Z,37.37
2018-11-04T15:34:16.407Z,39.63
2018-11-04T15:36:20.674Z,37.57
2018-11-04T15:38:25.173Z,40.13
2018-11-04T15:40:29.889Z,40.13
2018-11-04T15:42:34.261Z,45.33
2018-11-04T15:44:38.370Z,39.17
2018-11-04T15:46:42.859Z,40.07
2018-11-04T15:48:47.315Z,39.97
2018-11-04T15:50:51.722Z,41.17
2018-11-04T15:52:56.231Z,37.47
2018-11-04T15:55:00.658Z,38.93
2018-11-04T15:57:19.449Z,38.10
2018-11-04T15:59:24.132Z,37.87
2018-11-04T16:01:28.654Z,38.20
2018-11-04T16:03:33.232Z,46.93
2018-11-04T16:05:37.713Z,42.07
2018-11-04T16:07:41.903Z,45.10
2018-11-04T16:09:46.236Z,39.70
2018-11-04T16:11:50.599Z,44.50
2018-11-04T16:13:55.391Z,45.80
2018-11-04T16:15:59.772Z,45.03
2018-11-04T16:18:04.287Z,44.73
2018-11-04T16:20:10.489Z,47.90
2018-11-04T16:22:14.831Z,45.77
2018-11-04T16:24:19.679Z,38.87
2018-11-04T16:26:24.015Z,45.17
2018-11-04T16:29:31.673Z,48.57
2018-11-04T16:31:36.271Z,44.60
2018-11-04T16:33:40.859Z,40.43
2018-11-04T16:35:45.394Z,45.47
2018-11-04T16:37:49.908Z,46.03
2018-11-04T16:39:54.851Z,50.90
2018-11-04T16:41:59.209Z,43.90
2018-11-04T16:44:03.827Z,46.57
2018-11-04T16:46:08.276Z,44.73
2018-11-04T16:48:13.264Z,48.10
2018-11-04T16:50:17.968Z,45.57
2018-11-04T16:52:22.464Z,46.27
2018-11-04T16:54:26.764Z,96.10
2018-11-04T16:56:31.184Z,69.10
2018-11-04T16:58:35.622Z,55.53
2018-11-04T17:00:40.149Z,52.40
2018-11-04T17:02:44.534Z,50.17
2018-11-04T17:04:48.729Z,44.93
2018-11-04T17:06:53.434Z,46.57
2018-11-04T17:08:57.818Z,45.90
2018-11-04T17:11:02.102Z,54.00
2018-11-04T17:13:06.861Z,45.13
2018-11-04T17:15:12.821Z,40.50
2018-11-04T17:17:17.240Z,43.10
2018-11-04T17:19:21.812Z,41.33
2018-11-04T17:21:26.133Z,57.20
2018-11-04T17:23:30.715Z,43.20
2018-11-04T17:25:35.509Z,42.93
2018-11-04T17:27:40.058Z,51.87
2018-11-04T17:29:44.699Z,52.53
2018-11-04T17:31:49.141Z,40.77
2018-11-04T17:33:53.929Z,46.20
2018-11-04T17:35:58.509Z,46.23
2018-11-04T17:38:04.474Z,43.50
2018-11-04T17:40:10.311Z,39.83
2018-11-04T17:42:14.801Z,43.73
2018-11-04T17:44:19.555Z,45.10
2018-11-04T17:46:23.884Z,40.33
2018-11-04T17:48:28.235Z,41.17
2018-11-04T17:50:32.787Z,42.43
2018-11-04T17:52:38.465Z,47.60
2018-11-04T17:54:43.017Z,38.93
2018-11-04T17:56:47.787Z,38.47
2018-11-04T17:58:52.053Z,43.23
2018-11-04T18:00:57.924Z,45.40
2018-11-04T18:03:02.478Z,47.80
2018-11-04T18:05:07.520Z,43.30
2018-11-04T18:07:12.055Z,45.05
2018-11-04T18:09:16.529Z,46.13
2018-11-04T18:11:21.056Z,43.67
2018-11-04T18:13:25.628Z,44.07
2018-11-04T18:15:30.708Z,42.63
2018-11-04T18:17:35.018Z,41.27
2018-11-04T18:19:40.876Z,39.67
2018-11-04T18:21:45.138Z,41.17
2018-11-04T18:23:49.681Z,41.00
2018-11-04T18:25:53.942Z,42.07
2018-11-04T18:27:58.280Z,35.57
2018-11-04T18:30:02.661Z,44.03
2018-11-04T18:32:07.760Z,122.90
2018-11-04T18:34:12.384Z,74.60
2018-11-04T18:36:17.161Z,109.27
2018-11-04T18:38:21.802Z,122.37
2018-11-04T18:40:26.458Z,72.93
2018-11-04T18:42:31.120Z,63.30
2018-11-04T18:44:35.824Z,64.77
2018-11-04T18:46:40.181Z,59.77
2018-11-04T18:48:44.553Z,67.10
2018-11-04T18:50:49.003Z,59.10
2018-11-04T18:52:53.779Z,57.47
2018-11-04T18:54:58.117Z,60.13
2018-11-04T18:57:02.815Z,61.00
2018-11-04T18:59:07.410Z,61.63
2018-11-04T19:01:11.848Z,50.47
2018-11-04T19:03:16.508Z,58.77
2018-11-04T19:05:21.007Z,57.50
2018-11-04T19:07:25.631Z,55.80
2018-11-04T19:09:30.272Z,60.83
2018-11-04T19:11:36.017Z,56.13
2018-11-04T19:13:40.438Z,56.37
2018-11-04T19:15:45.074Z,52.10
2018-11-04T19:17:49.541Z,55.07
2018-11-04T19:19:54.367Z,50.93
2018-11-04T19:21:59.131Z,50.00
2018-11-04T19:24:03.732Z,49.13
2018-11-04T19:26:08.189Z,50.63
2018-11-04T19:28:13.725Z,51.47
2018-11-04T19:30:18.531Z,66.53
2018-11-04T19:32:22.926Z,90.47
2018-11-04T19:34:27.373Z,66.73
2018-11-04T19:36:32.059Z,83.50
2018-11-04T19:38:36.382Z,69.00
2018-11-04T19:40:41.825Z,67.17
2018-11-04T19:42:46.400Z,52.47
2018-11-04T19:44:50.904Z,48.13
2018-11-04T19:46:55.585Z,50.50
2018-11-04T19:48:59.709Z,48.90
2018-11-04T19:51:04.374Z,65.17
2018-11-04T19:53:08.861Z,75.30
2018-11-04T19:55:13.556Z,139.07
2018-11-04T19:57:17.855Z,139.50
2018-11-04T19:59:22.438Z,207.53
2018-11-04T20:01:26.961Z,197.23
2018-11-04T20:03:31.453Z,73.00
2018-11-04T20:05:35.754Z,66.37
2018-11-04T20:07:40.170Z,52.00
2018-11-04T20:09:46.748Z,46.07
2018-11-04T20:11:51.078Z,46.37
2018-11-04T20:14:00.502Z,44.90
2018-11-04T20:16:05.126Z,43.10
2018-11-04T20:18:14.479Z,36.20
2018-11-04T20:20:23.611Z,35.70
2018-11-04T20:22:28.299Z,38.33
2018-11-04T20:24:37.944Z,36.63
2018-11-04T20:26:42.659Z,35.57
2018-11-04T20:28:47.473Z,37.63
2018-11-04T20:30:51.555Z,34.53
2018-11-04T20:33:03.130Z,34.93
2018-11-04T20:35:07.528Z,39.67
2018-11-04T20:37:11.941Z,33.70
2018-11-04T20:39:21.521Z,33.13
2018-11-04T20:41:29.721Z,36.77
2018-11-04T20:43:34.232Z,30.83
2018-11-04T20:45:38.712Z,38.30
2018-11-04T20:47:48.188Z,38.07
2018-11-04T20:49:57.719Z,34.33
2018-11-04T20:52:03.413Z,40.70
2018-11-04T20:54:08.070Z,39.07
2018-11-04T20:56:17.439Z,41.17
2018-11-04T20:58:22.014Z,42.60
2018-11-04T21:00:26.401Z,44.00
2018-11-04T21:02:30.966Z,42.77
2018-11-04T21:04:35.303Z,40.50
2018-11-04T21:06:39.790Z,44.57
2018-11-04T21:08:44.217Z,45.40
2018-11-04T21:10:48.484Z,39.53
2018-11-04T21:12:53.133Z,37.77
2018-11-04T21:14:57.632Z,37.37
2018-11-04T21:17:01.871Z,35.93
2018-11-04T21:19:06.922Z,38.83
2018-11-04T21:21:11.266Z,35.23
2018-11-04T21:23:15.749Z,37.33
2018-11-04T21:25:20.082Z,40.57
2018-11-04T21:27:24.799Z,35.47
2018-11-04T21:29:29.820Z,36.70
2018-11-04T21:31:34.032Z,34.27
2018-11-04T21:33:38.455Z,34.63
2018-11-04T21:35:42.975Z,34.80
2018-11-04T21:37:49.480Z,35.03
2018-11-04T21:39:57.099Z,36.10
2018-11-04T21:42:01.623Z,37.97
2018-11-04T21:44:06.523Z,35.93
2018-11-04T21:46:11.565Z,34.00
2018-11-04T21:48:16.676Z,32.90
2018-11-04T21:50:20.933Z,31.90
2018-11-04T21:52:25.154Z,34.70
2018-11-04T21:54:29.563Z,33.27
2018-11-04T21:56:34.085Z,30.27
2018-11-04T21:58:38.407Z,31.27
2018-11-04T22:00:42.670Z,32.57
2018-11-04T22:02:47.328Z,30.77
2018-11-04T22:04:51.573Z,30.10
2018-11-04T22:06:55.905Z,33.13
2018-11-04T22:09:00.540Z,32.63
2018-11-04T22:11:05.005Z,32.40
2018-11-04T22:13:09.296Z,36.67
2018-11-04T22:15:13.882Z,31.80
2018-11-04T22:17:18.357Z,31.77
2018-11-04T22:19:22.761Z,37.17
2018-11-04T22:21:27.195Z,32.17
2018-11-04T22:23:31.400Z,30.27
2018-11-04T22:25:35.810Z,33.03
2018-11-04T22:27:40.198Z,32.10
2018-11-04T22:29:44.546Z,39.80
2018-11-04T22:31:49.200Z,35.83
2018-11-04T22:33:53.535Z,32.67
2018-11-04T22:35:58.111Z,34.30
2018-11-04T22:38:02.381Z,34.67
2018-11-04T22:40:08.708Z,31.93
2018-11-04T22:42:13.236Z,31.27
2018-11-04T22:44:17.393Z,33.10
2018-11-04T22:46:21.713Z,29.33
2018-11-04T22:48:26.181Z,31.93
2018-11-04T22:50:30.531Z,33.60
2018-11-04T22:52:34.946Z,27.50
2018-11-04T22:54:39.416Z,34.07
2018-11-04T22:56:43.799Z,31.40
2018-11-04T22:58:48.229Z,31.23
2018-11-04T23:00:57.622Z,35.67
2018-11-04T23:03:02.250Z,31.47
2018-11-04T23:05:12.104Z,31.73
2018-11-04T23:07:16.872Z,33.10
2018-11-04T23:09:21.188Z,29.70
2018-11-04T23:11:25.589Z,30.27
2018-11-04T23:13:29.939Z,29.07
2018-11-04T23:15:34.412Z,31.37
2018-11-04T23:17:38.934Z,30.47
2018-11-04T23:19:43.375Z,32.30
2018-11-04T23:21:47.757Z,33.20
2018-11-04T23:23:52.280Z,32.60
2018-11-04T23:25:56.518Z,30.30
2018-11-04T23:28:01.082Z,32.13
2018-11-04T23:30:07.172Z,35.50
2018-11-04T23:32:11.616Z,30.30
2018-11-04T23:34:16.104Z,30.50
2018-11-04T23:36:20.726Z,27.63
2018-11-04T23:38:25.235Z,27.13
2018-11-04T23:40:29.837Z,29.17
2018-11-04T23:42:34.291Z,29.90
2018-11-04T23:44:38.809Z,25.50
2018-11-04T23:46:43.141Z,31.30
2018-11-04T23:48:47.246Z,27.87
2018-11-04T23:50:51.514Z,33.13
2018-11-04T23:52:56.046Z,32.47
2018-11-04T23:55:00.388Z,31.87
2018-11-04T23:57:04.823Z,32.97
2018-11-04T23:59:09.292Z,31.30
